Forside
METAR-TAF:

METAR-TAF

Lufthavne :

Whiteside County Airport (Jos. H. Bittorf Field)

Sterling / Rock Falls, Illinois, USA

Breddekreds: 41-45N, længdekreds: 089-40W, højde: 197 m

Aktuelle vejr

Denne rapport blev lavet for 18 minutter siden, kl. 07:56 UTC
Vind 5 kt fra sydvest
Temperatur 2°C
Fugtighed 80%
Tryk 1017 hPa
Sigt: 16.1 km
skyfri

METAR: KSQI 290756Z AUTO 22005KT 10SM CLR 02/M01 A3002 RMK AO2 SLP032 T00221006 FZRANO

Tid: 02:14 (08:14 UTC)


TAF: fraværende

Vejrobservationer og prognoser fra mere end 4000 lufthavne (METAR og TAF).

De gule og røde prikker repræsenterer de meteorologiske stationer.

Flyt musen over at se navnet på stationen.

Så klik over at se vejr observationer og prognoser.

At skifte det kort: Klik på de grønne knapper med et sort kors for at zoome ind; på den grønne knap med en bindestreg for at zoome ud; eller på de grønne pile for tilstødende kort.


METAR-TAF: